Time;durP1;ratioP1;P1;durP2;ratioP2;P2;SDS_P1;SDS_P2;PMS_P1;PMS_P2;Temp;Humidity;BMP_temperature;BMP_pressure;BME280_temperature;BME280_humidity;BME280_pressure;Samples;Min_cycle;Max_cycle;Signal;HPM_P1;HPM_P2
2020/12/30 00:01:09;;;;;;;3.80;2.20;;;3.40;99.90;;;;;;6251608;28;20180;-80
2020/12/30 00:04:11;;;;;;;1.83;1.60;;;3.50;99.90;;;;;;6252415;28;20144;-81
2020/12/30 00:07:12;;;;;;;5.40;1.73;;;3.50;99.90;;;;;;6252682;28;20125;-80
2020/12/30 00:10:18;;;;;;;2.63;2.15;;;3.50;99.90;;;;;;6251649;28;20046;-80
2020/12/30 00:13:19;;;;;;;2.60;2.03;;;3.60;99.90;;;;;;6251547;28;20103;-81
2020/12/30 00:16:21;;;;;;;6.85;2.10;;;3.70;99.90;;;;;;6251203;28;20111;-80
2020/12/30 00:19:22;;;;;;;2.83;2.30;;;3.70;99.90;;;;;;6251355;28;20081;-80
2020/12/30 00:26:32;;;;;;;2.75;2.10;;;3.80;99.90;;;;;;6205542;28;20085;-80
2020/12/30 00:29:38;;;;;;;3.70;1.52;;;3.70;99.90;;;;;;6226921;28;20052;-81
2020/12/30 00:32:45;;;;;;;2.63;1.65;;;3.70;99.90;;;;;;6191243;28;20073;-80
2020/12/30 00:35:46;;;;;;;1.50;1.40;;;3.80;99.90;;;;;;6202651;28;20061;-80
2020/12/30 00:38:48;;;;;;;3.78;1.83;;;3.80;99.90;;;;;;6201474;28;20305;-80
2020/12/30 00:41:56;;;;;;;2.22;1.90;;;3.80;99.90;;;;;;6201599;28;20046;-80
2020/12/30 00:45:43;;;;;;;3.17;1.67;;;3.80;99.90;;;;;;6204406;28;20050;-81
2020/12/30 00:49:00;;;;;;;2.00;1.42;;;3.80;99.90;;;;;;6071952;28;20071;-81
2020/12/30 00:52:01;;;;;;;2.00;1.63;;;3.80;99.90;;;;;;6201231;28;20050;-82
2020/12/30 00:55:09;;;;;;;5.53;1.55;;;3.90;99.90;;;;;;6200672;28;20125;-80
2020/12/30 00:58:11;;;;;;;4.32;1.88;;;3.90;99.90;;;;;;6200850;28;20050;-81
2020/12/30 01:13:39;;;;;;;2.50;1.83;;;3.80;99.90;;;;;;6092656;29;20036;-80
2020/12/30 01:16:55;;;;;;;2.75;1.50;;;3.90;99.90;;;;;;6091059;29;20048;-81
2020/12/30 01:23:55;;;;;;;4.35;1.83;;;3.90;99.90;;;;;;6133175;28;20099;-82
2020/12/30 01:44:38;;;;;;;;;;;;;;;;;;;;;
2020/12/30 02:08:37;;;;;;;1.30;1.20;;;4.40;99.90;;;;;;6051121;29;20111;-80
2020/12/30 02:15:36;;;;;;;4.43;1.17;;;4.40;99.90;;;;;;5998180;28;20198;-80
2020/12/30 02:18:38;;;;;;;2.25;1.60;;;4.50;99.90;;;;;;6199894;28;20049;-80
2020/12/30 02:21:39;;;;;;;2.05;1.25;;;4.50;99.90;;;;;;6198872;28;20057;-80
2020/12/30 02:24:41;;;;;;;5.10;1.25;;;4.50;99.90;;;;;;6199970;28;20101;-80
2020/12/30 02:27:43;;;;;;;1.10;1.00;;;4.60;99.90;;;;;;6199043;28;20042;-80
2020/12/30 02:30:44;;;;;;;1.23;1.13;;;4.60;99.90;;;;;;6197745;28;20612;-81
2020/12/30 02:33:45;;;;;;;1.70;1.30;;;4.60;99.90;;;;;;6199915;28;20519;-80
2020/12/30 02:36:47;;;;;;;4.97;2.38;;;4.60;99.80;;;;;;6199246;28;20089;-80
2020/12/30 02:39:49;;;;;;;2.75;1.27;;;4.70;99.60;;;;;;6200130;28;20046;-80
2020/12/30 02:42:52;;;;;;;1.83;1.00;;;4.70;99.20;;;;;;6200823;28;20128;-81
2020/12/30 02:45:54;;;;;;;1.80;1.10;;;4.70;99.30;;;;;;6200733;28;20057;-80
2020/12/30 02:48:55;;;;;;;2.70;1.05;;;4.70;98.60;;;;;;6199333;28;20058;-81
2020/12/30 02:51:56;;;;;;;1.63;1.02;;;4.80;98.40;;;;;;6197501;28;20050;-81
2020/12/30 02:54:58;;;;;;;1.50;1.25;;;4.80;98.20;;;;;;6198543;28;20125;-80
2020/12/30 02:58:00;;;;;;;2.70;0.95;;;4.80;98.00;;;;;;6197394;28;20046;-80
2020/12/30 03:01:01;;;;;;;1.02;0.88;;;4.80;97.90;;;;;;6196609;28;20185;-81
2020/12/30 03:04:02;;;;;;;1.95;0.85;;;4.80;97.80;;;;;;6195847;28;20129;-80
2020/12/30 03:07:05;;;;;;;1.08;0.98;;;4.80;97.70;;;;;;6194719;28;20503;-80
2020/12/30 03:10:07;;;;;;;3.58;2.85;;;4.90;97.50;;;;;;6194611;28;20070;-80
2020/12/30 03:13:08;;;;;;;2.35;1.00;;;4.90;97.30;;;;;;6194842;28;20720;-80
2020/12/30 03:16:10;;;;;;;2.67;1.35;;;4.90;97.10;;;;;;6195354;28;20050;-80
2020/12/30 03:19:11;;;;;;;2.42;0.80;;;5.00;97.10;;;;;;6200752;28;20046;-80
2020/12/30 03:22:12;;;;;;;1.48;1.00;;;5.00;97.10;;;;;;6199628;28;20506;-79
2020/12/30 03:25:15;;;;;;;1.13;0.77;;;5.00;96.90;;;;;;6200532;28;20070;-80
2020/12/30 03:28:16;;;;;;;3.35;1.35;;;5.00;97.30;;;;;;6201360;28;20046;-80
2020/12/30 03:31:17;;;;;;;3.47;1.85;;;5.00;97.40;;;;;;6200952;28;20058;-80
2020/12/30 03:34:18;;;;;;;3.42;1.30;;;5.00;97.10;;;;;;6201285;28;20046;-79
2020/12/30 03:37:20;;;;;;;4.60;1.38;;;5.00;96.90;;;;;;6201152;28;20042;-79
2020/12/30 03:40:22;;;;;;;2.03;1.30;;;5.00;97.10;;;;;;6201361;28;20058;-80
2020/12/30 03:43:23;;;;;;;3.20;1.20;;;5.00;96.70;;;;;;6201953;28;20129;-79
2020/12/30 03:46:25;;;;;;;6.40;1.77;;;5.00;96.50;;;;;;6189945;28;20125;-79
2020/12/30 03:49:26;;;;;;;2.58;1.00;;;5.00;96.40;;;;;;6201275;28;20423;-79
2020/12/30 03:52:28;;;;;;;2.75;1.05;;;5.00;95.80;;;;;;6200757;28;20055;-80
2020/12/30 03:55:30;;;;;;;9.13;2.25;;;5.00;95.70;;;;;;6202816;28;20081;-80
2020/12/30 03:58:31;;;;;;;4.78;1.67;;;5.00;96.10;;;;;;6200583;28;20150;-80
2020/12/30 04:01:32;;;;;;;2.03;1.73;;;5.00;96.30;;;;;;6200451;28;20472;-81
2020/12/30 04:04:34;;;;;;;2.85;1.38;;;5.00;95.90;;;;;;6201361;28;20133;-80
2020/12/30 04:07:35;;;;;;;4.60;1.45;;;5.00;95.60;;;;;;6202501;28;20129;-79
2020/12/30 04:10:37;;;;;;;4.18;1.65;;;4.90;95.70;;;;;;6202335;28;20066;-80
2020/12/30 04:13:38;;;;;;;3.83;1.58;;;4.90;96.10;;;;;;6203377;28;20050;-80
2020/12/30 04:16:40;;;;;;;2.28;1.23;;;4.80;96.40;;;;;;6202960;28;20046;-80
2020/12/30 04:19:42;;;;;;;1.63;1.13;;;4.70;96.10;;;;;;6203291;28;20420;-79
2020/12/30 04:22:43;;;;;;;1.88;1.38;;;4.70;96.40;;;;;;6202195;28;20631;-80
2020/12/30 04:25:48;;;;;;;4.03;1.50;;;4.60;96.80;;;;;;6202646;28;20526;-80
2020/12/30 04:28:49;;;;;;;1.90;1.70;;;4.60;97.00;;;;;;6193395;28;20073;-79
2020/12/30 04:31:51;;;;;;;4.80;1.50;;;4.60;97.00;;;;;;6201356;28;20138;-80
2020/12/30 04:34:52;;;;;;;3.15;1.48;;;4.60;97.10;;;;;;6202159;28;20053;-80
2020/12/30 04:37:53;;;;;;;1.88;1.65;;;4.70;97.00;;;;;;6200871;28;20054;-80
2020/12/30 04:40:58;;;;;;;6.57;1.50;;;4.70;97.10;;;;;;6200074;28;20046;-79
2020/12/30 04:44:01;;;;;;;2.10;1.67;;;4.70;97.10;;;;;;6201261;28;20424;-79
2020/12/30 04:47:03;;;;;;;2.38;1.70;;;4.70;97.10;;;;;;6200998;28;20133;-80
2020/12/30 04:50:05;;;;;;;4.15;1.42;;;4.70;97.30;;;;;;6200507;28;20137;-80
2020/12/30 04:53:07;;;;;;;3.00;2.25;;;4.70;97.20;;;;;;6200905;28;20046;-80
2020/12/30 04:56:13;;;;;;;5.68;1.77;;;4.70;97.30;;;;;;6201100;28;20145;-79
2020/12/30 04:59:16;;;;;;;4.97;1.85;;;4.70;97.40;;;;;;6201615;28;20046;-79
2020/12/30 05:02:23;;;;;;;3.95;1.38;;;4.70;97.20;;;;;;6200654;28;20457;-80
2020/12/30 05:05:24;;;;;;;3.38;1.52;;;4.80;96.60;;;;;;6192573;28;20043;-80
2020/12/30 05:08:26;;;;;;;4.10;1.80;;;4.80;96.30;;;;;;6200667;28;20058;-80
2020/12/30 05:11:28;;;;;;;4.85;1.67;;;4.90;95.90;;;;;;6202315;28;20463;-80
2020/12/30 05:14:29;;;;;;;4.78;1.95;;;4.90;95.80;;;;;;6201830;28;20046;-80
2020/12/30 05:17:33;;;;;;;3.50;2.63;;;4.90;95.90;;;;;;6200492;28;20046;-79
2020/12/30 05:20:38;;;;;;;1.63;1.42;;;4.90;96.00;;;;;;6200941;28;20056;-80
2020/12/30 05:23:39;;;;;;;4.55;1.92;;;5.00;95.80;;;;;;6201233;28;20117;-80
2020/12/30 05:26:42;;;;;;;3.67;1.35;;;4.90;95.80;;;;;;6200566;28;20134;-79
2020/12/30 05:29:49;;;;;;;2.35;1.45;;;5.00;96.10;;;;;;6201021;28;20054;-79
2020/12/30 05:32:53;;;;;;;2.65;1.40;;;5.00;96.20;;;;;;6200287;28;20050;-80
2020/12/30 05:35:59;;;;;;;3.83;1.55;;;5.00;96.30;;;;;;6201537;28;20129;-79
2020/12/30 05:39:00;;;;;;;2.50;1.55;;;5.00;95.90;;;;;;6199482;28;20042;-80
2020/12/30 05:42:10;;;;;;;2.42;1.83;;;5.00;95.90;;;;;;6200697;28;20074;-80
2020/12/30 05:45:18;;;;;;;2.03;1.20;;;5.00;95.90;;;;;;6199287;28;20098;-80
2020/12/30 05:48:20;;;;;;;7.10;1.95;;;5.00;96.10;;;;;;6201219;28;20042;-80
2020/12/30 05:51:28;;;;;;;2.58;1.48;;;5.00;96.30;;;;;;6204999;28;20050;-80
2020/12/30 05:54:30;;;;;;;1.58;1.27;;;5.00;96.20;;;;;;6201817;28;20674;-80
2020/12/30 05:57:33;;;;;;;4.72;2.25;;;5.00;96.10;;;;;;6204295;28;20086;-80
2020/12/30 06:00:35;;;;;;;9.15;1.65;;;5.00;96.20;;;;;;6204323;28;20100;-80
2020/12/30 06:03:36;;;;;;;6.53;1.73;;;5.00;96.40;;;;;;6203428;28;20058;-81
2020/12/30 06:06:41;;;;;;;6.20;2.50;;;5.00;96.50;;;;;;6202101;28;20050;-79
2020/12/30 06:09:50;;;;;;;5.03;2.55;;;4.90;96.60;;;;;;6203123;28;20591;-80
2020/12/30 06:12:53;;;;;;;3.00;2.13;;;4.90;96.70;;;;;;6202872;28;20065;-81
2020/12/30 06:15:56;;;;;;;3.30;1.83;;;4.90;96.80;;;;;;6204156;28;20050;-80
2020/12/30 06:18:57;;;;;;;4.30;2.17;;;4.90;96.90;;;;;;6204088;28;20046;-80
2020/12/30 06:22:02;;;;;;;3.25;2.08;;;4.90;96.80;;;;;;6202711;28;20505;-79
2020/12/30 06:25:03;;;;;;;3.42;1.90;;;4.80;96.70;;;;;;6202134;28;20129;-79
2020/12/30 06:28:08;;;;;;;3.22;1.65;;;4.80;96.60;;;;;;6202608;28;20052;-80
2020/12/30 06:31:10;;;;;;;3.22;2.47;;;4.70;96.70;;;;;;6200646;28;20125;-79
2020/12/30 06:34:12;;;;;;;2.42;2.20;;;4.70;96.50;;;;;;6202465;28;20060;-79
2020/12/30 06:37:13;;;;;;;3.85;1.45;;;4.80;96.40;;;;;;6201115;28;20042;-80
2020/12/30 06:40:32;;;;;;;5.65;1.50;;;4.80;96.40;;;;;;6201409;28;20153;-79
2020/12/30 06:43:42;;;;;;;2.47;1.73;;;4.80;96.10;;;;;;6202803;28;20129;-79
2020/12/30 06:46:43;;;;;;;3.70;1.15;;;4.80;95.90;;;;;;6201505;28;20076;-78
2020/12/30 06:49:44;;;;;;;3.47;1.98;;;4.80;96.00;;;;;;6199470;28;20062;-79
2020/12/30 06:52:46;;;;;;;2.47;1.42;;;4.90;96.10;;;;;;6200630;28;20169;-80
2020/12/30 06:55:47;;;;;;;2.58;1.70;;;4.80;96.20;;;;;;6201213;28;20532;-79
2020/12/30 06:58:51;;;;;;;1.50;0.98;;;4.80;96.50;;;;;;6200482;28;20070;-79
2020/12/30 07:01:57;;;;;;;4.88;1.73;;;4.80;96.30;;;;;;6200088;28;20053;-80
2020/12/30 07:05:01;;;;;;;5.55;1.10;;;4.80;96.30;;;;;;6190583;28;20047;-80
2020/12/30 07:08:02;;;;;;;2.70;1.60;;;4.90;96.20;;;;;;6199730;28;20416;-80
2020/12/30 07:11:03;;;;;;;4.18;1.23;;;4.90;96.10;;;;;;6192814;28;20046;-79
2020/12/30 07:14:07;;;;;;;2.22;1.33;;;4.90;96.10;;;;;;6201212;28;20541;-80
2020/12/30 07:17:09;;;;;;;3.28;1.10;;;4.90;96.00;;;;;;6200027;28;20045;-80
2020/12/30 07:20:21;;;;;;;8.05;2.40;;;4.90;95.90;;;;;;6193962;28;20054;-79
2020/12/30 07:23:22;;;;;;;3.47;1.52;;;4.80;96.20;;;;;;6197737;28;20141;-79
2020/12/30 07:26:24;;;;;;;2.30;1.67;;;4.80;96.50;;;;;;6196886;28;20053;-79
2020/12/30 07:29:26;;;;;;;4.35;1.75;;;4.70;96.50;;;;;;6189566;28;20050;-78
2020/12/30 07:32:32;;;;;;;6.95;1.42;;;4.70;96.50;;;;;;6191322;28;20054;-79
2020/12/30 07:35:33;;;;;;;2.28;1.48;;;4.80;96.40;;;;;;6196719;28;20069;-79
2020/12/30 07:38:36;;;;;;;1.48;0.95;;;4.80;96.50;;;;;;6193331;28;20049;-79
2020/12/30 07:41:37;;;;;;;11.25;2.30;;;4.80;96.50;;;;;;6196571;28;20424;-80
2020/12/30 07:44:44;;;;;;;1.77;1.35;;;4.90;96.60;;;;;;6187603;28;20038;-79
2020/12/30 07:47:45;;;;;;;4.05;2.00;;;4.90;96.60;;;;;;6190893;28;20051;-80
2020/12/30 07:50:49;;;;;;;4.60;1.10;;;4.90;96.70;;;;;;6184364;28;20105;-80
2020/12/30 07:53:52;;;;;;;2.33;1.40;;;4.90;96.80;;;;;;6192039;28;20046;-79
2020/12/30 07:57:01;;;;;;;3.72;1.52;;;4.90;97.10;;;;;;6182977;28;20121;-79
2020/12/30 08:00:04;;;;;;;5.85;1.77;;;5.10;97.20;;;;;;6190335;28;20110;-79
2020/12/30 08:03:06;;;;;;;1.67;1.45;;;5.10;97.10;;;;;;6192180;28;20086;-80
2020/12/30 08:06:09;;;;;;;1.88;1.55;;;5.20;97.10;;;;;;6194423;28;20098;-79
2020/12/30 08:09:11;;;;;;;5.93;1.70;;;5.30;96.40;;;;;;6194198;28;20113;-79
2020/12/30 08:12:14;;;;;;;2.92;1.35;;;5.30;96.40;;;;;;6197205;28;20092;-80
2020/12/30 08:15:16;;;;;;;3.50;1.60;;;5.40;96.50;;;;;;6202199;28;20081;-80
2020/12/30 08:18:18;;;;;;;2.92;1.60;;;5.40;96.30;;;;;;6190842;28;20070;-80
2020/12/30 08:21:22;;;;;;;3.45;1.60;;;5.40;96.30;;;;;;6200350;28;20053;-79
2020/12/30 08:24:29;;;;;;;1.95;1.13;;;5.40;96.10;;;;;;6199947;28;20050;-80
2020/12/30 08:27:31;;;;;;;5.60;1.58;;;5.40;96.00;;;;;;6195662;28;20077;-81
2020/12/30 08:30:34;;;;;;;3.97;2.35;;;5.40;95.80;;;;;;6194754;28;20650;-80
2020/12/30 08:33:40;;;;;;;10.98;8.80;;;5.40;95.60;;;;;;6200390;28;20050;-79
2020/12/30 08:36:46;;;;;;;4.68;2.85;;;5.40;95.70;;;;;;6199008;28;20539;-79
2020/12/30 08:39:52;;;;;;;3.90;2.88;;;5.40;95.30;;;;;;6192747;28;20117;-83
2020/12/30 08:43:18;;;;;;;9.23;8.20;;;5.40;95.20;;;;;;6197139;28;20047;-80
2020/12/30 08:46:25;;;;;;;3.70;3.22;;;5.40;95.30;;;;;;6203951;28;20046;-80
2020/12/30 08:49:27;;;;;;;4.80;4.30;;;5.50;95.30;;;;;;6196949;28;20133;-80
2020/12/30 08:52:29;;;;;;;9.27;3.92;;;5.60;95.30;;;;;;6193454;28;20047;-79
2020/12/30 08:55:30;;;;;;;14.05;4.38;;;5.60;95.10;;;;;;6199449;28;20082;-80
2020/12/30 08:58:31;;;;;;;6.85;2.70;;;5.70;95.00;;;;;;6199857;28;20039;-79
2020/12/30 09:01:34;;;;;;;7.80;4.93;;;5.70;94.90;;;;;;6197941;28;20050;-80
2020/12/30 09:04:35;;;;;;;7.20;6.50;;;5.70;95.10;;;;;;6197067;28;20054;-80
2020/12/30 09:07:37;;;;;;;9.32;5.38;;;5.80;95.10;;;;;;6193108;28;20489;-80
2020/12/30 09:10:39;;;;;;;10.63;7.75;;;5.80;95.00;;;;;;6199122;28;20042;-80
2020/12/30 09:13:40;;;;;;;6.63;5.38;;;5.90;95.00;;;;;;6202605;28;20121;-80
2020/12/30 09:16:53;;;;;;;11.77;10.63;;;6.00;95.00;;;;;;6196608;28;20049;-79
2020/12/30 09:20:11;;;;;;;4.50;3.22;;;6.10;94.70;;;;;;6199259;28;20061;-82
2020/12/30 09:23:13;;;;;;;3.17;2.08;;;6.20;94.30;;;;;;6191035;28;20109;-80
2020/12/30 09:26:27;;;;;;;3.38;2.50;;;6.20;94.40;;;;;;6188522;28;20073;-79
2020/12/30 09:29:29;;;;;;;4.30;2.35;;;6.20;93.90;;;;;;6196275;28;20581;-78
2020/12/30 09:32:31;;;;;;;3.63;2.17;;;6.20;94.00;;;;;;6192489;28;20667;-79
2020/12/30 09:35:32;;;;;;;5.43;2.25;;;6.20;94.00;;;;;;6191824;28;20077;-80
2020/12/30 09:38:33;;;;;;;2.38;2.15;;;6.30;93.80;;;;;;6195054;28;20053;-79
2020/12/30 09:41:35;;;;;;;4.85;1.90;;;6.20;94.00;;;;;;6192941;28;20038;-80
2020/12/30 09:44:36;;;;;;;4.85;2.05;;;6.20;93.60;;;;;;6195874;28;20080;-80
2020/12/30 09:47:39;;;;;;;2.35;1.92;;;6.30;93.90;;;;;;6196403;28;20195;-80
2020/12/30 09:50:42;;;;;;;5.32;2.40;;;6.30;94.00;;;;;;6190672;28;20118;-80
2020/12/30 09:53:44;;;;;;;3.70;1.75;;;6.50;93.80;;;;;;6191705;28;20076;-80
2020/12/30 09:56:49;;;;;;;7.50;2.83;;;6.50;93.30;;;;;;6192279;28;20054;-80
2020/12/30 09:59:50;;;;;;;2.00;1.73;;;6.50;93.30;;;;;;6198747;28;20666;-81
2020/12/30 10:02:53;;;;;;;9.55;2.88;;;6.50;93.20;;;;;;6195139;28;20070;-80
2020/12/30 10:05:54;;;;;;;4.15;2.63;;;6.70;97.10;;;;;;6192422;28;20042;-80
2020/12/30 10:08:56;;;;;;;5.60;2.08;;;7.20;97.50;;;;;;6194865;28;20050;-80
2020/12/30 10:11:57;;;;;;;2.92;1.90;;;7.60;96.30;;;;;;6191056;28;20074;-80
2020/12/30 10:14:58;;;;;;;6.88;2.53;;;7.90;94.70;;;;;;6198775;28;20081;-80
2020/12/30 10:18:01;;;;;;;6.30;2.03;;;8.30;92.90;;;;;;6197612;28;20155;-80
2020/12/30 10:21:03;;;;;;;2.97;1.60;;;8.30;91.60;;;;;;6196589;28;20053;-80
2020/12/30 10:24:04;;;;;;;2.92;1.60;;;8.10;90.80;;;;;;6186776;28;20112;-80
2020/12/30 10:27:05;;;;;;;5.78;2.58;;;7.80;91.00;;;;;;6197236;28;20052;-80
2020/12/30 10:30:08;;;;;;;5.53;2.03;;;7.80;91.20;;;;;;6181475;28;20051;-80
2020/12/30 10:33:10;;;;;;;3.40;1.70;;;7.60;91.00;;;;;;6200072;28;20046;-80
2020/12/30 10:36:11;;;;;;;2.45;1.33;;;7.30;90.30;;;;;;6198486;28;20121;-80
2020/12/30 10:39:13;;;;;;;3.40;1.30;;;7.10;90.90;;;;;;6189913;28;20077;-81
2020/12/30 10:42:14;;;;;;;1.92;1.73;;;7.00;91.00;;;;;;6185075;28;20046;-81
2020/12/30 10:45:16;;;;;;;10.35;1.92;;;6.80;90.60;;;;;;6191882;28;20492;-81
2020/12/30 10:48:18;;;;;;;7.03;1.88;;;6.70;90.50;;;;;;6195071;28;20074;-80
2020/12/30 10:51:20;;;;;;;5.00;2.22;;;6.70;91.20;;;;;;6192826;28;20575;-79
2020/12/30 10:54:21;;;;;;;7.43;2.17;;;6.60;90.90;;;;;;6192678;28;20074;-81
2020/12/30 10:57:22;;;;;;;8.65;2.20;;;6.60;91.20;;;;;;6193124;28;20424;-81
2020/12/30 11:00:23;;;;;;;5.45;1.60;;;6.60;90.80;;;;;;6190949;28;20058;-80
2020/12/30 11:03:26;;;;;;;3.22;1.77;;;6.60;91.00;;;;;;6191558;28;20056;-80
2020/12/30 11:06:27;;;;;;;3.30;1.90;;;6.50;91.00;;;;;;6193590;28;20075;-80
2020/12/30 11:09:28;;;;;;;3.42;1.58;;;6.60;91.00;;;;;;6186931;28;20137;-80
2020/12/30 11:12:29;;;;;;;3.88;1.90;;;6.60;90.90;;;;;;6193433;28;20435;-80
2020/12/30 11:15:34;;;;;;;3.88;1.60;;;6.60;90.70;;;;;;6190942;28;20053;-80
2020/12/30 11:18:37;;;;;;;3.40;1.67;;;6.60;90.80;;;;;;6190425;28;20132;-80
2020/12/30 11:21:38;;;;;;;3.20;1.63;;;6.60;90.70;;;;;;6190000;28;20452;-80
2020/12/30 11:24:39;;;;;;;4.20;2.17;;;6.70;90.40;;;;;;6196030;28;20046;-81
2020/12/30 11:27:41;;;;;;;2.78;1.33;;;6.70;90.30;;;;;;6193747;28;20053;-81
2020/12/30 11:30:42;;;;;;;4.22;1.35;;;6.70;90.40;;;;;;6190289;28;20134;-81
2020/12/30 11:33:44;;;;;;;6.65;1.90;;;6.60;90.10;;;;;;6198138;28;20049;-81
2020/12/30 11:36:46;;;;;;;3.20;2.03;;;6.60;90.40;;;;;;6190214;28;20050;-81
2020/12/30 11:39:47;;;;;;;4.13;2.42;;;6.60;90.60;;;;;;6191470;28;20070;-81
2020/12/30 11:42:48;;;;;;;2.90;1.60;;;6.60;90.90;;;;;;6198089;28;20046;-81
2020/12/30 11:45:50;;;;;;;2.95;2.20;;;6.70;90.10;;;;;;6201127;28;20053;-80
2020/12/30 11:48:53;;;;;;;5.32;2.00;;;6.70;90.80;;;;;;6196740;28;20445;-81
2020/12/30 11:51:55;;;;;;;3.80;2.20;;;6.80;91.10;;;;;;6199369;28;20427;-79
2020/12/30 11:54:56;;;;;;;2.88;2.28;;;6.80;90.60;;;;;;6199701;28;20058;-81
2020/12/30 11:57:57;;;;;;;4.78;2.20;;;6.70;90.70;;;;;;6199055;28;20046;-81
2020/12/30 12:00:59;;;;;;;4.80;2.40;;;6.70;90.70;;;;;;6197656;28;20059;-81
2020/12/30 12:04:02;;;;;;;37.40;21.58;;;6.70;90.90;;;;;;6194283;28;20054;-82
2020/12/30 12:07:04;;;;;;;161.35;102.32;;;6.70;90.40;;;;;;6197809;28;20047;-81
2020/12/30 12:10:06;;;;;;;14.40;11.82;;;6.60;90.70;;;;;;6193682;28;20177;-81
2020/12/30 12:13:07;;;;;;;3.70;3.03;;;6.60;90.70;;;;;;6195509;28;20125;-81
2020/12/30 12:16:11;;;;;;;6.32;3.47;;;6.60;90.70;;;;;;6195375;28;20130;-81
2020/12/30 12:19:13;;;;;;;4.57;2.65;;;6.50;90.70;;;;;;6196385;28;20051;-80
2020/12/30 12:22:15;;;;;;;3.42;2.40;;;6.50;91.20;;;;;;6189517;28;20150;-81
2020/12/30 12:25:16;;;;;;;2.53;2.15;;;6.50;91.50;;;;;;6194100;28;20486;-81
2020/12/30 12:28:39;;;;;;;5.40;2.75;;;6.60;91.40;;;;;;6186839;28;20046;-81
2020/12/30 12:31:40;;;;;;;19.17;17.30;;;6.60;91.10;;;;;;6193930;28;20055;-81
2020/12/30 12:34:44;;;;;;;5.40;3.70;;;6.60;91.20;;;;;;6193486;28;20051;-80
2020/12/30 12:38:04;;;;;;;5.90;4.68;;;6.60;91.50;;;;;;6192245;28;20049;-81
2020/12/30 12:41:06;;;;;;;3.83;3.22;;;6.60;91.30;;;;;;6195082;28;20125;-80
2020/12/30 12:44:07;;;;;;;3.58;2.83;;;6.50;91.50;;;;;;6190966;28;20129;-81
2020/12/30 12:47:09;;;;;;;3.85;2.65;;;6.50;91.20;;;;;;6191901;28;20042;-81
2020/12/30 12:50:11;;;;;;;3.63;2.35;;;6.40;91.30;;;;;;6195730;28;20135;-80
2020/12/30 12:53:12;;;;;;;9.07;2.33;;;6.40;91.60;;;;;;6190748;28;20106;-80
2020/12/30 12:56:16;;;;;;;3.22;2.38;;;6.40;91.70;;;;;;6198522;28;20511;-80
2020/12/30 12:59:17;;;;;;;2.72;2.53;;;6.40;92.10;;;;;;6193845;28;20161;-82
2020/12/30 13:02:19;;;;;;;3.33;2.95;;;6.40;92.30;;;;;;6194779;28;20492;-80
2020/12/30 13:05:21;;;;;;;4.35;3.08;;;6.40;92.50;;;;;;6184998;28;20659;-82
2020/12/30 13:08:25;;;;;;;4.65;2.58;;;6.40;92.40;;;;;;6188604;28;20114;-80
2020/12/30 13:11:27;;;;;;;4.68;2.90;;;6.40;92.40;;;;;;6185046;28;20075;-80
2020/12/30 13:14:28;;;;;;;10.75;3.13;;;6.30;93.10;;;;;;6196710;28;20458;-80
2020/12/30 13:17:29;;;;;;;2.65;2.13;;;6.30;92.90;;;;;;6184976;28;20179;-78
2020/12/30 13:20:31;;;;;;;4.15;3.45;;;6.40;93.00;;;;;;6189695;28;20069;-78
2020/12/30 13:23:33;;;;;;;2.90;2.67;;;6.40;93.10;;;;;;6194881;28;20133;-79
2020/12/30 13:26:34;;;;;;;6.03;2.70;;;6.40;93.00;;;;;;6195433;28;20042;-79
2020/12/30 13:29:36;;;;;;;4.30;2.20;;;6.50;92.80;;;;;;6194077;28;20557;-79
2020/12/30 13:32:37;;;;;;;5.68;4.28;;;6.50;92.40;;;;;;6199128;28;20042;-78
2020/12/30 13:35:39;;;;;;;5.13;3.22;;;6.40;92.30;;;;;;6199788;28;20043;-78
2020/12/30 13:38:40;;;;;;;6.80;6.15;;;6.40;92.20;;;;;;6193298;28;20046;-78
2020/12/30 13:41:42;;;;;;;4.63;4.00;;;6.30;92.30;;;;;;6191666;28;20078;-79
2020/12/30 13:44:43;;;;;;;7.65;4.82;;;6.30;92.50;;;;;;6197741;28;20077;-78
2020/12/30 13:47:45;;;;;;;3.45;3.13;;;6.20;92.40;;;;;;6188138;28;20109;-80
2020/12/30 13:50:49;;;;;;;5.32;2.92;;;6.10;92.50;;;;;;6182670;28;20074;-78
2020/12/30 13:53:50;;;;;;;5.72;2.83;;;6.00;93.10;;;;;;6195228;28;20061;-79
2020/12/30 13:56:51;;;;;;;3.38;2.97;;;5.90;93.50;;;;;;6187235;28;20110;-78
2020/12/30 13:59:52;;;;;;;5.00;3.05;;;5.90;94.00;;;;;;6197329;28;20054;-78
2020/12/30 14:02:54;;;;;;;4.75;2.88;;;5.90;94.40;;;;;;6195819;28;20074;-78
2020/12/30 14:05:56;;;;;;;5.57;3.03;;;5.80;94.70;;;;;;6197266;28;20045;-79
2020/12/30 14:08:57;;;;;;;4.20;2.60;;;5.80;94.90;;;;;;6195298;28;20049;-79
2020/12/30 14:12:01;;;;;;;3.78;2.80;;;5.80;95.10;;;;;;6191261;28;20058;-78
2020/12/30 14:15:03;;;;;;;4.07;3.45;;;5.80;95.30;;;;;;6189845;28;20054;-78
2020/12/30 14:18:05;;;;;;;4.05;2.95;;;5.80;95.50;;;;;;6190444;28;20113;-79
2020/12/30 14:21:07;;;;;;;5.03;3.85;;;5.80;95.50;;;;;;6188119;28;20133;-79
2020/12/30 14:24:08;;;;;;;6.10;3.35;;;5.80;95.30;;;;;;6192302;28;20534;-79
2020/12/30 14:27:10;;;;;;;4.25;2.92;;;5.80;95.70;;;;;;6192632;28;20051;-79
2020/12/30 14:30:11;;;;;;;5.70;3.40;;;5.70;95.80;;;;;;6194978;28;20105;-79
2020/12/30 14:33:12;;;;;;;3.92;2.58;;;5.60;96.00;;;;;;6193406;28;20463;-79
2020/12/30 14:36:21;;;;;;;3.28;2.97;;;5.60;96.20;;;;;;6190766;28;20110;-78
2020/12/30 14:39:22;;;;;;;3.65;2.33;;;5.50;96.30;;;;;;6199642;28;20061;-79
2020/12/30 14:42:23;;;;;;;2.75;2.10;;;5.40;96.10;;;;;;6195317;28;20046;-79
2020/12/30 14:45:25;;;;;;;1.88;1.65;;;5.30;96.20;;;;;;6192783;28;20078;-78
2020/12/30 14:48:29;;;;;;;4.18;1.98;;;5.30;96.30;;;;;;6191256;28;20108;-79
2020/12/30 14:51:32;;;;;;;2.10;1.77;;;5.20;96.40;;;;;;6192579;28;20048;-79
2020/12/30 14:54:33;;;;;;;2.78;1.83;;;5.10;96.50;;;;;;6197679;28;20055;-79
2020/12/30 14:57:34;;;;;;;2.78;2.00;;;5.00;96.70;;;;;;6193105;28;20179;-79
2020/12/30 15:00:36;;;;;;;2.05;1.50;;;4.90;97.00;;;;;;6192227;28;20086;-79
2020/12/30 15:03:37;;;;;;;4.05;1.75;;;4.90;97.20;;;;;;6189657;28;20452;-79
2020/12/30 15:06:39;;;;;;;3.10;2.13;;;4.90;97.10;;;;;;6197492;28;20070;-79
2020/12/30 15:09:41;;;;;;;2.25;1.80;;;4.90;96.90;;;;;;6195603;28;20038;-79
2020/12/30 15:12:42;;;;;;;2.00;1.73;;;5.00;97.10;;;;;;6196295;28;20117;-79
2020/12/30 15:15:44;;;;;;;3.80;2.05;;;5.00;97.00;;;;;;6195633;28;20105;-79
2020/12/30 15:18:46;;;;;;;4.55;1.55;;;5.00;97.20;;;;;;6195547;28;20058;-79
2020/12/30 15:21:48;;;;;;;2.35;2.03;;;5.00;97.10;;;;;;6194618;28;20054;-79
2020/12/30 15:24:50;;;;;;;2.08;1.83;;;5.00;97.00;;;;;;6193557;28;20074;-78
2020/12/30 15:27:51;;;;;;;1.80;1.67;;;5.00;96.90;;;;;;6193149;28;20051;-78
2020/12/30 15:30:52;;;;;;;2.78;1.92;;;5.00;97.20;;;;;;6186108;28;20060;-79
2020/12/30 15:33:53;;;;;;;7.18;2.45;;;5.00;97.50;;;;;;6200426;28;20081;-79
2020/12/30 15:36:56;;;;;;;2.05;1.80;;;5.00;97.50;;;;;;6199788;28;20058;-79
2020/12/30 15:39:57;;;;;;;2.75;1.88;;;5.10;97.50;;;;;;6195525;28;20057;-79
2020/12/30 15:42:58;;;;;;;3.15;1.88;;;5.10;97.40;;;;;;6199951;28;20054;-79
2020/12/30 15:46:00;;;;;;;10.93;2.10;;;5.10;97.60;;;;;;6202490;28;20053;-78
2020/12/30 15:49:01;;;;;;;2.25;1.67;;;5.00;97.60;;;;;;6200378;28;20576;-79
2020/12/30 15:52:04;;;;;;;3.17;2.05;;;4.80;97.70;;;;;;6197980;28;20050;-79
2020/12/30 15:55:05;;;;;;;6.18;2.78;;;4.80;98.10;;;;;;6191782;28;20054;-79
2020/12/30 15:58:06;;;;;;;3.45;2.03;;;4.80;98.40;;;;;;6194433;28;20062;-79
2020/12/30 16:01:09;;;;;;;3.28;1.75;;;4.80;98.40;;;;;;6194366;28;20077;-79
2020/12/30 16:04:11;;;;;;;5.68;1.95;;;4.80;98.30;;;;;;6182383;28;20432;-79
2020/12/30 16:07:13;;;;;;;3.13;2.13;;;4.90;98.20;;;;;;6185120;28;20161;-79
2020/12/30 16:10:14;;;;;;;6.72;3.75;;;4.90;98.20;;;;;;6188985;28;20134;-79
2020/12/30 16:13:16;;;;;;;16.80;12.15;;;5.00;98.20;;;;;;6199995;28;20061;-79
2020/12/30 16:16:17;;;;;;;12.10;6.68;;;5.00;98.20;;;;;;6197372;28;20051;-80
2020/12/30 16:19:19;;;;;;;8.95;5.75;;;5.00;98.20;;;;;;6193295;28;20054;-80
2020/12/30 16:22:21;;;;;;;7.97;6.22;;;5.00;98.60;;;;;;6192271;28;20091;-80
2020/12/30 16:25:22;;;;;;;9.88;5.38;;;4.90;98.90;;;;;;6191416;28;20555;-80
2020/12/30 16:28:23;;;;;;;11.25;6.60;;;4.90;99.00;;;;;;6187431;28;20071;-79
2020/12/30 16:31:25;;;;;;;7.03;6.30;;;4.80;99.30;;;;;;6197622;28;20051;-80
2020/12/30 16:34:26;;;;;;;9.05;5.18;;;4.80;99.60;;;;;;6198172;28;20201;-80
2020/12/30 16:37:29;;;;;;;10.68;6.82;;;4.90;99.90;;;;;;6190253;28;20555;-79
2020/12/30 16:40:30;;;;;;;9.98;7.18;;;4.80;99.90;;;;;;6198733;28;20069;-79
2020/12/30 16:43:31;;;;;;;7.32;5.90;;;4.80;99.90;;;;;;6194141;28;20428;-79
2020/12/30 16:46:32;;;;;;;8.20;6.43;;;4.80;99.90;;;;;;6192585;28;20070;-79
2020/12/30 16:49:34;;;;;;;9.82;7.03;;;4.80;99.90;;;;;;6196338;28;20049;-79
2020/12/30 16:52:36;;;;;;;7.22;6.13;;;4.80;99.90;;;;;;6191586;28;20398;-79
2020/12/30 16:55:37;;;;;;;10.73;8.52;;;4.80;99.90;;;;;;6197069;28;20081;-79
2020/12/30 16:58:39;;;;;;;14.85;10.30;;;4.80;99.90;;;;;;6190159;28;20141;-79
2020/12/30 17:01:40;;;;;;;12.48;9.20;;;4.80;99.90;;;;;;6194204;28;20046;-79
2020/12/30 17:04:41;;;;;;;12.07;8.43;;;4.90;99.90;;;;;;6195411;28;20178;-79
2020/12/30 17:07:44;;;;;;;11.45;9.25;;;4.90;99.90;;;;;;6198022;28;20082;-79